Time;durP1;ratioP1;P1;durP2;ratioP2;P2;SDS_P1;SDS_P2;PMS_P1;PMS_P2;Temp;Humidity;BMP_temperature;BMP_pressure;BME280_temperature;BME280_humidity;BME280_pressure;Samples;Min_cycle;Max_cycle;Signal;HPM_P1;HPM_P2
2022/10/31 00:00:47;;;;;;;7.78;3.15;;;11.50;99.90;;;;;;5038089;28;20369;-65
2022/10/31 00:03:14;;;;;;;8.75;3.25;;;11.40;99.90;;;;;;5055747;28;20463;-65
2022/10/31 00:05:42;;;;;;;8.25;3.58;;;11.40;99.90;;;;;;5053433;28;20076;-65
2022/10/31 00:08:09;;;;;;;9.80;3.50;;;11.40;99.90;;;;;;5037330;28;20090;-65
2022/10/31 00:10:41;;;;;;;8.32;2.85;;;11.50;99.90;;;;;;5055609;28;20125;-65
2022/10/31 00:13:08;;;;;;;5.97;2.55;;;11.40;99.90;;;;;;5053557;28;20534;-65
2022/10/31 00:15:36;;;;;;;9.10;2.92;;;11.40;99.90;;;;;;5054834;28;20040;-65
2022/10/31 00:18:03;;;;;;;6.03;2.88;;;11.30;99.90;;;;;;5053208;28;20090;-65
2022/10/31 00:20:30;;;;;;;4.65;2.67;;;11.30;99.90;;;;;;5053553;28;20048;-65
2022/10/31 00:22:58;;;;;;;8.27;3.53;;;11.40;99.90;;;;;;5053197;28;20056;-65
2022/10/31 00:25:26;;;;;;;10.00;3.00;;;11.30;99.90;;;;;;5055130;28;20040;-65
2022/10/31 00:27:52;;;;;;;5.53;2.58;;;11.30;99.90;;;;;;5053286;28;20094;-65
2022/10/31 00:30:19;;;;;;;6.55;3.00;;;11.20;99.90;;;;;;5086792;28;20144;-65
2022/10/31 00:32:46;;;;;;;7.40;3.33;;;11.20;99.90;;;;;;5053047;28;20088;-65
2022/10/31 00:35:13;;;;;;;10.02;3.22;;;11.10;99.90;;;;;;5054208;28;20071;-65
2022/10/31 00:37:40;;;;;;;9.68;3.25;;;11.10;99.90;;;;;;5054504;28;20052;-65
2022/10/31 00:40:08;;;;;;;5.22;2.78;;;11.10;99.90;;;;;;5054283;28;20045;-65
2022/10/31 00:42:34;;;;;;;4.22;2.60;;;11.10;99.90;;;;;;5054125;28;20374;-65
2022/10/31 00:45:01;;;;;;;5.65;2.72;;;11.00;99.90;;;;;;5053214;28;20060;-65
2022/10/31 00:47:31;;;;;;;13.27;3.83;;;11.00;99.90;;;;;;5052911;28;20098;-65
2022/10/31 00:49:58;;;;;;;6.22;3.38;;;11.00;99.90;;;;;;5054107;28;20083;-65
2022/10/31 00:52:25;;;;;;;3.70;2.50;;;11.00;99.90;;;;;;5055349;28;20076;-65
2022/10/31 00:54:52;;;;;;;6.90;3.40;;;11.00;99.90;;;;;;5053035;28;20053;-65
2022/10/31 00:57:18;;;;;;;9.73;2.90;;;11.00;99.90;;;;;;5053553;28;20049;-65
2022/10/31 00:59:45;;;;;;;4.38;2.97;;;10.90;99.90;;;;;;5053834;28;20048;-65
2022/10/31 01:02:12;;;;;;;8.85;2.92;;;11.00;99.90;;;;;;5052882;28;20102;-65
2022/10/31 01:04:39;;;;;;;3.88;2.38;;;11.00;99.90;;;;;;5052482;28;20045;-65
2022/10/31 01:07:06;;;;;;;10.52;2.90;;;10.90;99.90;;;;;;5053561;28;20037;-65
2022/10/31 01:09:33;;;;;;;9.20;3.22;;;10.90;99.90;;;;;;5036771;28;20094;-65
2022/10/31 01:12:00;;;;;;;8.60;3.45;;;10.90;99.90;;;;;;5052366;28;20094;-65
2022/10/31 01:14:27;;;;;;;9.90;3.63;;;10.80;99.90;;;;;;5052225;28;20110;-65
2022/10/31 01:16:54;;;;;;;7.40;2.88;;;10.80;99.90;;;;;;5036079;28;20037;-65
2022/10/31 01:19:21;;;;;;;5.97;2.88;;;10.80;99.90;;;;;;5053127;28;20041;-65
2022/10/31 01:21:48;;;;;;;4.35;2.30;;;10.80;99.90;;;;;;5052429;28;20048;-65
2022/10/31 01:24:14;;;;;;;5.97;2.67;;;10.70;99.90;;;;;;5052001;28;20045;-65
2022/10/31 01:26:41;;;;;;;6.85;2.75;;;10.70;99.90;;;;;;5052243;28;20056;-65
2022/10/31 01:29:08;;;;;;;6.35;3.15;;;10.70;99.90;;;;;;5035752;28;20048;-65
2022/10/31 01:31:37;;;;;;;7.90;2.95;;;10.60;99.90;;;;;;5052142;28;20045;-65
2022/10/31 01:34:04;;;;;;;6.28;2.88;;;10.60;99.90;;;;;;5052892;28;20095;-65
2022/10/31 01:36:33;;;;;;;5.78;3.53;;;10.60;99.90;;;;;;5051796;28;20041;-65
2022/10/31 01:39:03;;;;;;;9.40;3.07;;;10.60;99.90;;;;;;5053351;28;20055;-65
2022/10/31 01:41:32;;;;;;;9.43;3.10;;;10.60;99.90;;;;;;5052154;28;20044;-65
2022/10/31 01:44:14;;;;;;;12.05;3.55;;;10.50;99.90;;;;;;5036347;28;20099;-65
2022/10/31 01:46:48;;;;;;;9.07;4.30;;;10.60;99.90;;;;;;5052924;28;20059;-65
2022/10/31 01:49:19;;;;;;;14.82;4.40;;;10.60;99.90;;;;;;5052294;28;20098;-65
2022/10/31 01:51:48;;;;;;;16.52;3.80;;;10.70;99.90;;;;;;5052093;28;20075;-65
2022/10/31 01:54:15;;;;;;;23.48;4.53;;;10.80;99.90;;;;;;5035377;28;20048;-65
2022/10/31 01:56:43;;;;;;;13.32;5.00;;;11.00;99.90;;;;;;5051556;28;20049;-65
2022/10/31 01:59:11;;;;;;;23.63;5.03;;;11.20;99.90;;;;;;5052780;28;20098;-65
2022/10/31 02:01:38;;;;;;;21.40;5.95;;;11.40;99.90;;;;;;5052343;28;20044;-65
2022/10/31 02:04:06;;;;;;;16.65;4.35;;;11.50;99.90;;;;;;5051587;28;20056;-65
2022/10/31 02:06:43;;;;;;;21.10;5.40;;;11.60;99.90;;;;;;5052680;28;20057;-65
2022/10/31 02:09:10;;;;;;;18.80;3.67;;;11.70;99.90;;;;;;5052922;28;20051;-65
2022/10/31 02:11:37;;;;;;;15.85;4.07;;;11.80;99.90;;;;;;5051533;28;20118;-65
2022/10/31 02:14:03;;;;;;;20.17;5.43;;;11.80;99.90;;;;;;5052246;28;20037;-65
2022/10/31 02:16:30;;;;;;;26.27;5.57;;;11.90;99.90;;;;;;5035560;28;20049;-65
2022/10/31 02:18:57;;;;;;;17.05;4.30;;;11.90;99.90;;;;;;5053460;28;20041;-65
2022/10/31 02:21:27;;;;;;;18.50;5.15;;;12.00;99.90;;;;;;5053404;28;20103;-65
2022/10/31 02:24:03;;;;;;;;;;;11.90;99.90;;;;;;5053226;28;20041;-65
2022/10/31 02:26:43;;;;;;;13.35;3.88;;;12.00;99.90;;;;;;5052416;28;19971;-65
2022/10/31 02:29:35;;;;;;;17.30;4.13;;;12.00;99.90;;;;;;5051875;28;20100;-65
2022/10/31 02:32:17;;;;;;;19.83;5.38;;;12.10;99.90;;;;;;5053199;28;20099;-65
2022/10/31 02:35:07;;;;;;;17.20;4.45;;;12.10;99.90;;;;;;5036719;28;20052;-65
2022/10/31 02:37:41;;;;;;;11.73;3.50;;;12.10;99.90;;;;;;5051802;28;20103;-65
2022/10/31 02:40:19;;;;;;;17.52;3.55;;;12.20;99.90;;;;;;5034295;28;20530;-65
2022/10/31 02:43:04;;;;;;;17.02;3.95;;;12.20;99.90;;;;;;5051165;28;20045;-65
2022/10/31 02:45:48;;;;;;;16.30;4.25;;;12.20;99.90;;;;;;5050707;28;20342;-65
2022/10/31 02:48:18;;;;;;;17.65;4.28;;;12.30;99.90;;;;;;5034508;28;20130;-65
2022/10/31 02:50:52;;;;;;;23.75;5.10;;;12.30;99.90;;;;;;5051556;28;20299;-65
2022/10/31 02:53:19;;;;;;;17.75;5.30;;;12.30;99.90;;;;;;5050848;28;20076;-65
2022/10/31 02:55:56;;;;;;;17.58;5.03;;;12.30;99.90;;;;;;5051877;28;20041;-65
2022/10/31 02:58:25;;;;;;;17.45;4.53;;;12.40;99.90;;;;;;5051965;28;20045;-65
2022/10/31 03:01:15;;;;;;;20.67;4.60;;;12.40;99.90;;;;;;5050757;28;20044;-65
2022/10/31 03:04:12;;;;;;;14.23;3.75;;;12.40;99.90;;;;;;5037169;28;20055;-65
2022/10/31 03:07:08;;;;;;;16.70;4.75;;;12.40;99.90;;;;;;5029424;28;20091;-65
2022/10/31 03:09:44;;;;;;;23.00;5.47;;;12.40;99.90;;;;;;5045876;28;20477;-65
2022/10/31 03:12:16;;;;;;;14.18;4.40;;;12.50;99.90;;;;;;5034269;28;20077;-65
2022/10/31 03:14:54;;;;;;;18.95;3.75;;;12.50;99.90;;;;;;5051133;28;20416;-65
2022/10/31 03:17:37;;;;;;;11.23;4.10;;;12.50;99.90;;;;;;5051372;28;20049;-65
2022/10/31 03:20:05;;;;;;;15.32;4.20;;;12.50;99.90;;;;;;5051744;28;20461;-66
2022/10/31 03:22:32;;;;;;;14.93;4.10;;;12.50;99.90;;;;;;5054258;28;20492;-65
2022/10/31 03:25:01;;;;;;;12.88;4.32;;;12.50;99.90;;;;;;5055142;28;20102;-65
2022/10/31 03:27:29;;;;;;;19.27;3.25;;;12.50;99.90;;;;;;5054978;28;20040;-65
2022/10/31 03:29:57;;;;;;;17.10;4.15;;;12.60;99.90;;;;;;5037363;28;20045;-65
2022/10/31 03:32:36;;;;;;;15.23;3.65;;;12.60;99.90;;;;;;5054226;28;20438;-65
2022/10/31 03:35:03;;;;;;;22.45;4.95;;;12.60;99.90;;;;;;5040212;28;20126;-65
2022/10/31 03:37:30;;;;;;;15.52;3.97;;;12.60;99.90;;;;;;5054857;28;20037;-65
2022/10/31 03:39:58;;;;;;;12.00;3.35;;;12.60;99.90;;;;;;5037858;28;20468;-65
2022/10/31 03:42:25;;;;;;;16.90;4.75;;;12.70;99.90;;;;;;5054230;28;20084;-65
2022/10/31 03:45:05;;;;;;;17.08;4.07;;;12.70;99.90;;;;;;5053539;28;20052;-66
2022/10/31 03:47:32;;;;;;;13.05;3.42;;;12.70;99.90;;;;;;5037269;28;20067;-65
2022/10/31 03:49:59;;;;;;;19.17;3.55;;;12.70;99.90;;;;;;4997911;28;20108;-65
2022/10/31 03:52:36;;;;;;;16.77;4.32;;;12.70;99.90;;;;;;5014789;28;20116;-65
2022/10/31 03:55:12;;;;;;;18.35;3.72;;;12.70;99.90;;;;;;5014299;28;20053;-65
2022/10/31 03:57:56;;;;;;;19.23;4.28;;;12.60;99.90;;;;;;5013774;28;20492;-65
2022/10/31 04:00:23;;;;;;;13.73;4.18;;;12.60;99.90;;;;;;4998362;28;20072;-65
2022/10/31 04:03:00;;;;;;;17.33;4.70;;;12.60;99.90;;;;;;5014421;28;20354;-65
2022/10/31 04:05:27;;;;;;;10.23;3.63;;;12.60;99.90;;;;;;5014083;28;20453;-65
2022/10/31 04:07:55;;;;;;;13.30;4.13;;;12.60;99.90;;;;;;5014267;28;20543;-65
2022/10/31 04:10:22;;;;;;;15.85;3.78;;;12.50;99.90;;;;;;5014990;28;20045;-65
2022/10/31 04:12:58;;;;;;;15.50;4.72;;;12.50;99.90;;;;;;5014352;28;20038;-65
2022/10/31 04:15:25;;;;;;;15.93;3.88;;;12.40;99.90;;;;;;4997536;28;20046;-65
2022/10/31 04:17:53;;;;;;;14.63;4.30;;;12.40;99.90;;;;;;5013307;28;20062;-65
2022/10/31 04:20:29;;;;;;;19.88;4.95;;;12.40;99.90;;;;;;5014841;28;20046;-65
2022/10/31 04:22:56;;;;;;;18.55;4.72;;;12.40;99.90;;;;;;5014273;28;20397;-65
2022/10/31 04:25:23;;;;;;;16.85;3.45;;;12.40;99.90;;;;;;5014598;28;20100;-64
2022/10/31 04:27:50;;;;;;;18.35;4.18;;;12.40;99.90;;;;;;5014203;28;20042;-64
2022/10/31 04:30:17;;;;;;;13.23;4.10;;;12.30;99.90;;;;;;5014360;28;20041;-63
2022/10/31 04:32:44;;;;;;;14.30;5.00;;;12.30;99.90;;;;;;5014114;28;20054;-64
2022/10/31 04:35:11;;;;;;;20.50;5.30;;;12.30;99.90;;;;;;4997835;28;20374;-63
2022/10/31 04:37:37;;;;;;;14.57;4.70;;;12.30;99.90;;;;;;5015452;28;20128;-64
2022/10/31 04:40:05;;;;;;;16.20;4.57;;;12.30;99.90;;;;;;5014209;28;20119;-64
2022/10/31 04:42:32;;;;;;;23.27;4.70;;;12.30;99.90;;;;;;5014953;28;20045;-64
2022/10/31 04:44:58;;;;;;;16.08;4.40;;;12.30;99.90;;;;;;5014207;28;20046;-64
2022/10/31 04:47:25;;;;;;;11.98;3.58;;;12.20;99.90;;;;;;5013456;28;20069;-64
2022/10/31 04:49:52;;;;;;;17.58;5.35;;;12.20;99.90;;;;;;5051929;28;20128;-64
2022/10/31 04:52:19;;;;;;;16.05;4.40;;;12.20;99.90;;;;;;5052635;28;20048;-64
2022/10/31 04:54:46;;;;;;;15.25;4.20;;;12.20;99.90;;;;;;5053650;28;20114;-64
2022/10/31 04:57:12;;;;;;;20.13;4.50;;;12.20;99.90;;;;;;5053859;28;20091;-64
2022/10/31 04:59:39;;;;;;;12.68;3.33;;;12.20;99.90;;;;;;5054240;28;20401;-64
2022/10/31 05:02:06;;;;;;;12.68;4.50;;;12.20;99.90;;;;;;5035813;28;20049;-64
2022/10/31 05:04:33;;;;;;;13.35;4.22;;;12.10;99.90;;;;;;5052694;28;20041;-64
2022/10/31 05:07:00;;;;;;;17.58;4.75;;;12.10;99.90;;;;;;5052580;28;20076;-64
2022/10/31 05:09:27;;;;;;;13.20;3.72;;;12.10;99.90;;;;;;5052391;28;20037;-64
2022/10/31 05:11:53;;;;;;;16.80;3.95;;;12.10;99.90;;;;;;5053038;28;20040;-64
2022/10/31 05:14:20;;;;;;;12.85;4.63;;;12.10;99.90;;;;;;5053635;28;20045;-64
2022/10/31 05:16:47;;;;;;;19.20;5.22;;;12.10;99.90;;;;;;5051936;28;20128;-64
2022/10/31 05:19:14;;;;;;;14.50;3.60;;;12.00;99.90;;;;;;5052104;28;20095;-64
2022/10/31 05:21:41;;;;;;;12.88;3.90;;;12.00;99.90;;;;;;5053323;28;20118;-64
2022/10/31 05:24:08;;;;;;;15.30;4.22;;;12.00;99.90;;;;;;5053371;28;20056;-64
2022/10/31 05:26:35;;;;;;;10.40;3.53;;;11.90;99.90;;;;;;5052199;28;20049;-65
2022/10/31 05:29:02;;;;;;;12.82;3.80;;;11.90;99.90;;;;;;5035585;28;20302;-64
2022/10/31 05:31:28;;;;;;;22.70;4.53;;;11.80;99.90;;;;;;5053448;28;20118;-64
2022/10/31 05:33:55;;;;;;;12.18;2.70;;;11.80;99.90;;;;;;5052650;28;20045;-64
2022/10/31 05:36:22;;;;;;;8.77;2.50;;;11.80;99.90;;;;;;5052863;28;20102;-64
2022/10/31 05:38:49;;;;;;;9.27;3.53;;;11.70;99.90;;;;;;5035645;28;20056;-64
2022/10/31 05:41:16;;;;;;;9.43;2.40;;;11.70;99.90;;;;;;5052861;28;20052;-64
2022/10/31 05:43:43;;;;;;;7.95;3.22;;;11.60;99.90;;;;;;5034920;28;20098;-64
2022/10/31 05:46:10;;;;;;;9.27;1.90;;;11.60;99.90;;;;;;5053317;28;20045;-64
2022/10/31 05:48:37;;;;;;;6.07;2.75;;;11.50;99.90;;;;;;5051405;28;20060;-64
2022/10/31 05:51:04;;;;;;;9.77;3.08;;;11.40;99.90;;;;;;5051448;28;20098;-64
2022/10/31 05:53:31;;;;;;;6.80;2.30;;;11.30;99.90;;;;;;5051347;28;20112;-64
2022/10/31 05:55:57;;;;;;;5.15;2.42;;;11.30;99.90;;;;;;5052585;28;20087;-64
2022/10/31 05:58:24;;;;;;;10.82;2.97;;;11.20;99.90;;;;;;5052858;28;20044;-64
2022/10/31 06:00:52;;;;;;;8.40;3.28;;;11.20;99.90;;;;;;5084774;28;20040;-64
2022/10/31 06:03:19;;;;;;;13.63;4.03;;;11.20;99.90;;;;;;5051713;28;20036;-64
2022/10/31 06:05:46;;;;;;;9.77;4.00;;;11.20;99.90;;;;;;5052426;28;20091;-63
2022/10/31 06:08:19;;;;;;;4.93;3.33;;;11.10;99.90;;;;;;5053627;28;20075;-64
2022/10/31 06:10:46;;;;;;;15.20;3.55;;;11.10;99.90;;;;;;5052652;28;20121;-64
2022/10/31 06:13:13;;;;;;;5.82;2.33;;;11.00;99.90;;;;;;5053105;28;20080;-63
2022/10/31 06:15:41;;;;;;;18.92;4.43;;;11.00;99.90;;;;;;5051610;28;20044;-64
2022/10/31 06:18:08;;;;;;;19.13;4.18;;;11.00;99.90;;;;;;5051338;28;20041;-64
2022/10/31 06:20:35;;;;;;;10.85;4.15;;;11.00;99.90;;;;;;5051737;28;20067;-63
2022/10/31 06:23:02;;;;;;;12.35;3.60;;;11.00;99.90;;;;;;5051492;28;20053;-64
2022/10/31 06:25:30;;;;;;;15.48;4.57;;;11.10;99.90;;;;;;5035066;28;20072;-64
2022/10/31 06:27:57;;;;;;;21.98;4.15;;;11.10;99.90;;;;;;5052062;28;20412;-64
2022/10/31 06:30:24;;;;;;;12.82;3.47;;;11.10;99.90;;;;;;5035343;28;20055;-64
2022/10/31 06:32:51;;;;;;;15.18;5.30;;;11.00;99.90;;;;;;5052708;28;20150;-64
2022/10/31 06:35:18;;;;;;;8.65;3.22;;;11.00;99.90;;;;;;5051493;28;20041;-64
2022/10/31 06:37:54;;;;;;;7.32;3.00;;;11.00;99.90;;;;;;5051576;28;20094;-64
2022/10/31 06:40:24;;;;;;;11.15;3.90;;;11.00;99.90;;;;;;5035825;28;20111;-64
2022/10/31 06:42:59;;;;;;;4.53;2.67;;;10.80;99.90;;;;;;5034399;28;20052;-64
2022/10/31 06:45:25;;;;;;;6.38;2.28;;;10.80;99.90;;;;;;5051149;28;20068;-63
2022/10/31 06:47:53;;;;;;;8.95;2.78;;;10.80;99.90;;;;;;5051789;28;20045;-64
2022/10/31 06:50:40;;;;;;;9.80;3.35;;;10.70;99.90;;;;;;5050979;28;20544;-64
2022/10/31 06:53:08;;;;;;;10.77;3.10;;;10.60;99.90;;;;;;5052132;28;20044;-64
2022/10/31 06:55:35;;;;;;;10.93;3.60;;;10.70;99.90;;;;;;5053119;28;20063;-63
2022/10/31 06:58:02;;;;;;;6.82;3.00;;;10.60;99.90;;;;;;5056324;28;20419;-64
2022/10/31 07:00:30;;;;;;;5.22;2.85;;;10.60;99.90;;;;;;5055806;28;20040;-63
2022/10/31 07:03:01;;;;;;;10.35;3.72;;;10.50;99.90;;;;;;5056526;28;20037;-63
2022/10/31 07:05:28;;;;;;;11.15;3.83;;;10.50;99.90;;;;;;5038699;28;20048;-63
2022/10/31 07:07:57;;;;;;;11.00;4.07;;;10.50;99.90;;;;;;5038468;28;20059;-63
2022/10/31 07:10:25;;;;;;;14.57;8.40;;;10.50;99.90;;;;;;5054884;28;20468;-64
2022/10/31 07:12:56;;;;;;;177.70;129.00;;;10.50;99.90;;;;;;5054485;28;20283;-64
2022/10/31 07:15:24;;;;;;;48.78;37.30;;;10.50;99.90;;;;;;5038530;28;20056;-62
2022/10/31 07:17:51;;;;;;;32.25;22.45;;;10.40;99.90;;;;;;5054557;28;20091;-65
2022/10/31 07:20:18;;;;;;;24.67;14.63;;;10.40;99.90;;;;;;5055642;28;20045;-65
2022/10/31 07:22:45;;;;;;;18.77;12.77;;;10.40;99.90;;;;;;5054745;28;20045;-67
2022/10/31 07:25:16;;;;;;;198.25;160.88;;;10.50;99.90;;;;;;5054553;28;20048;-64
2022/10/31 07:27:43;;;;;;;73.50;59.67;;;10.50;99.90;;;;;;5054696;28;20048;-63
2022/10/31 07:30:10;;;;;;;60.20;44.80;;;10.50;99.90;;;;;;5055556;28;20048;-63
2022/10/31 07:32:41;;;;;;;93.80;68.18;;;10.50;99.90;;;;;;5055350;28;20045;-62
2022/10/31 07:35:09;;;;;;;423.02;333.88;;;10.60;99.90;;;;;;5056452;28;20405;-63
2022/10/31 07:37:36;;;;;;;82.50;59.17;;;10.60;99.90;;;;;;5054370;28;20044;-65
2022/10/31 07:40:04;;;;;;;46.85;30.90;;;10.70;99.90;;;;;;5054716;28;20103;-64
2022/10/31 07:42:36;;;;;;;37.25;26.05;;;10.70;99.90;;;;;;5055580;28;20041;-63
2022/10/31 07:45:04;;;;;;;28.30;16.63;;;10.70;99.90;;;;;;5056191;28;20049;-63
2022/10/31 07:47:41;;;;;;;18.95;14.52;;;10.80;99.90;;;;;;5054628;28;20396;-63
2022/10/31 07:50:09;;;;;;;18.73;9.48;;;10.80;99.90;;;;;;5053819;28;20045;-63
2022/10/31 07:52:36;;;;;;;19.65;6.93;;;10.80;99.90;;;;;;5054054;28;20090;-63
2022/10/31 07:55:04;;;;;;;13.80;6.03;;;10.90;99.90;;;;;;5054053;28;20045;-63
2022/10/31 07:57:31;;;;;;;17.23;4.55;;;10.90;99.90;;;;;;5037727;28;20388;-63
2022/10/31 08:00:00;;;;;;;17.15;5.45;;;10.90;99.90;;;;;;5054178;28;20055;-65
2022/10/31 08:02:27;;;;;;;12.65;4.68;;;11.00;99.90;;;;;;5054331;28;20354;-64
2022/10/31 08:04:54;;;;;;;10.65;4.75;;;11.00;99.90;;;;;;5055371;28;20389;-64
2022/10/31 08:07:26;;;;;;;16.33;3.92;;;11.10;99.90;;;;;;5053356;28;20487;-64
2022/10/31 08:09:54;;;;;;;16.55;5.07;;;11.20;99.90;;;;;;5053380;28;20044;-61
2022/10/31 08:12:20;;;;;;;18.60;5.00;;;11.30;99.90;;;;;;5055113;28;20107;-60
2022/10/31 08:14:47;;;;;;;15.88;4.78;;;11.40;99.90;;;;;;5055529;28;20045;-61
2022/10/31 08:17:14;;;;;;;14.48;4.40;;;11.50;99.90;;;;;;5054136;28;20041;-61
2022/10/31 08:19:41;;;;;;;16.25;4.72;;;11.50;99.90;;;;;;5055443;28;20091;-62
2022/10/31 08:22:08;;;;;;;15.15;4.53;;;11.70;99.90;;;;;;5053363;28;20053;-62
2022/10/31 08:24:35;;;;;;;11.38;4.00;;;11.80;99.90;;;;;;5053333;28;20041;-63
2022/10/31 08:27:02;;;;;;;11.45;4.53;;;11.90;99.90;;;;;;5053418;28;20045;-63
2022/10/31 08:29:29;;;;;;;19.10;4.80;;;11.90;99.90;;;;;;5036411;28;20044;-63
2022/10/31 08:31:57;;;;;;;14.43;3.88;;;12.00;99.90;;;;;;5052928;28;20040;-65
2022/10/31 08:34:24;;;;;;;15.18;3.90;;;12.00;99.90;;;;;;5053064;28;20048;-64
2022/10/31 08:36:52;;;;;;;16.30;4.50;;;12.10;99.90;;;;;;5053251;28;20076;-70
2022/10/31 08:39:19;;;;;;;21.27;6.80;;;12.20;99.90;;;;;;5036508;28;20388;-65
2022/10/31 08:41:46;;;;;;;19.50;5.22;;;12.30;99.90;;;;;;5052849;28;20068;-64
2022/10/31 08:44:13;;;;;;;22.77;12.73;;;12.40;99.90;;;;;;5054094;28;20118;-64
2022/10/31 08:46:40;;;;;;;12.95;5.22;;;12.50;99.90;;;;;;5052791;28;20492;-64
2022/10/31 08:49:07;;;;;;;17.40;4.82;;;12.60;99.90;;;;;;5054399;28;20049;-65
2022/10/31 08:51:34;;;;;;;16.67;4.30;;;12.70;99.90;;;;;;5052753;28;20096;-64
2022/10/31 08:54:01;;;;;;;15.70;7.20;;;12.70;99.90;;;;;;5036619;28;20040;-63
2022/10/31 08:56:28;;;;;;;66.03;50.00;;;12.80;99.90;;;;;;5054699;28;20041;-64
2022/10/31 08:58:55;;;;;;;19.02;7.55;;;12.90;99.90;;;;;;5052927;28;20459;-65
2022/10/31 09:01:21;;;;;;;17.48;5.38;;;13.00;99.90;;;;;;5052512;28;20480;-66
2022/10/31 09:03:49;;;;;;;19.48;4.18;;;13.20;99.90;;;;;;5053093;28;20060;-69
2022/10/31 09:06:16;;;;;;;13.70;4.05;;;13.30;99.90;;;;;;5054056;28;20048;-67
2022/10/31 09:08:43;;;;;;;14.52;4.57;;;13.40;99.90;;;;;;5052697;28;20073;-67
2022/10/31 09:11:10;;;;;;;14.00;3.83;;;13.50;99.90;;;;;;5054051;28;20045;-65
2022/10/31 09:13:36;;;;;;;14.05;3.90;;;13.50;99.90;;;;;;5052303;28;20037;-65
2022/10/31 09:16:07;;;;;;;13.07;3.75;;;13.60;99.90;;;;;;5054383;28;20102;-64
2022/10/31 09:18:34;;;;;;;16.08;3.70;;;13.60;99.90;;;;;;5052005;28;20045;-63
2022/10/31 09:21:01;;;;;;;21.13;4.45;;;13.70;99.90;;;;;;5052498;28;20041;-65
2022/10/31 09:23:28;;;;;;;36.97;14.73;;;13.70;99.90;;;;;;5036326;28;20056;-65
2022/10/31 09:25:55;;;;;;;15.77;6.05;;;13.80;99.90;;;;;;5035755;28;20503;-63
2022/10/31 09:28:23;;;;;;;14.70;3.60;;;13.80;99.90;;;;;;5035867;28;20534;-64
2022/10/31 09:30:51;;;;;;;10.38;3.45;;;13.80;99.90;;;;;;5036128;28;20114;-64
2022/10/31 09:33:18;;;;;;;13.73;4.00;;;13.90;99.90;;;;;;5052151;28;20052;-64
2022/10/31 09:35:45;;;;;;;12.95;3.20;;;14.00;99.90;;;;;;5052284;28;20428;-64
2022/10/31 09:38:18;;;;;;;15.60;4.75;;;14.00;99.90;;;;;;5035471;28;20527;-64
2022/10/31 09:41:14;;;;;;;10.02;3.75;;;14.00;99.90;;;;;;5052075;28;20064;-64
2022/10/31 09:44:00;;;;;;;14.35;3.20;;;14.00;99.90;;;;;;5053794;28;20419;-64
2022/10/31 09:46:36;;;;;;;12.23;2.83;;;14.10;99.90;;;;;;5053041;28;20425;-64
2022/10/31 09:49:32;;;;;;;12.35;2.80;;;14.20;99.90;;;;;;5053122;28;20048;-63
2022/10/31 09:52:03;;;;;;;16.25;4.15;;;14.20;99.90;;;;;;5033741;28;20091;-64
2022/10/31 09:54:35;;;;;;;11.05;2.88;;;14.30;99.90;;;;;;5051799;28;20053;-63
2022/10/31 09:57:02;;;;;;;12.60;3.83;;;14.30;99.90;;;;;;5052939;28;20052;-63
2022/10/31 09:59:37;;;;;;;14.18;4.35;;;14.40;99.90;;;;;;5053612;28;20130;-63
2022/10/31 10:02:10;;;;;;;19.73;4.88;;;14.50;99.90;;;;;;5051596;28;20052;-63
2022/10/31 10:04:56;;;;;;;10.80;3.05;;;14.60;99.90;;;;;;5052819;28;20441;-63
2022/10/31 10:07:32;;;;;;;12.38;3.05;;;14.70;99.90;;;;;;5052714;28;20095;-63
2022/10/31 10:10:00;;;;;;;11.45;3.85;;;14.70;99.90;;;;;;5051435;28;20045;-63
2022/10/31 10:12:30;;;;;;;9.32;2.90;;;14.70;99.90;;;;;;5051352;28;20041;-63
2022/10/31 10:15:02;;;;;;;12.18;4.55;;;14.70;99.90;;;;;;5053710;28;20041;-63
2022/10/31 10:18:05;;;;;;;11.52;3.63;;;14.80;99.90;;;;;;5052993;28;20051;-64
2022/10/31 10:20:38;;;;;;;12.43;3.17;;;14.80;99.90;;;;;;5030649;28;20049;-64
2022/10/31 10:23:26;;;;;;;15.95;4.72;;;14.80;99.90;;;;;;5045423;28;20045;-64
2022/10/31 10:26:01;;;;;;;11.40;2.40;;;14.80;99.90;;;;;;5053852;28;20044;-64
2022/10/31 10:28:38;;;;;;;11.93;3.30;;;14.70;99.90;;;;;;5036818;28;20432;-63
2022/10/31 10:31:13;;;;;;;10.20;3.58;;;14.70;99.90;;;;;;5055398;28;20049;-64
2022/10/31 10:33:41;;;;;;;8.48;2.90;;;14.70;99.90;;;;;;5056674;28;20041;-64
2022/10/31 10:36:24;;;;;;;13.70;2.60;;;14.70;99.90;;;;;;5055612;28;20404;-64
2022/10/31 10:38:54;;;;;;;7.30;2.65;;;14.60;99.90;;;;;;5056385;28;20052;-64
2022/10/31 10:41:22;;;;;;;10.57;3.50;;;14.70;99.90;;;;;;5055260;28;20056;-64
2022/10/31 10:43:54;;;;;;;8.93;4.47;;;14.70;99.90;;;;;;5055730;28;20140;-64
2022/10/31 10:49:59;;;;;;;8.45;3.50;;;14.80;99.90;;;;;;5055239;28;20113;-64
2022/10/31 10:53:08;;;;;;;9.90;3.97;;;14.80;99.90;;;;;;5055250;28;20041;-63
2022/10/31 10:55:53;;;;;;;10.57;2.67;;;14.90;99.90;;;;;;5034799;28;20049;-63
2022/10/31 10:58:20;;;;;;;8.57;3.15;;;14.90;99.90;;;;;;5022751;28;20450;-63
2022/10/31 11:00:47;;;;;;;9.25;3.40;;;15.00;99.90;;;;;;5055460;28;20036;-63
2022/10/31 11:03:15;;;;;;;14.77;4.75;;;15.00;99.90;;;;;;5056128;28;20063;-64
2022/10/31 11:05:54;;;;;;;9.88;2.70;;;15.10;99.90;;;;;;5055037;28;20169;-63
2022/10/31 11:08:34;;;;;;;11.20;3.95;;;15.20;99.90;;;;;;5055124;28;20095;-63
2022/10/31 11:11:03;;;;;;;7.38;3.20;;;15.20;99.90;;;;;;5057360;28;20408;-64
2022/10/31 11:13:30;;;;;;;8.32;2.47;;;15.30;99.90;;;;;;5055133;28;20046;-64
2022/10/31 11:16:00;;;;;;;11.25;3.22;;;15.40;99.90;;;;;;5055406;28;20095;-63
2022/10/31 11:18:32;;;;;;;12.13;2.88;;;15.40;99.90;;;;;;5056468;28;20431;-64
2022/10/31 11:21:02;;;;;;;10.50;4.22;;;15.50;99.90;;;;;;5055187;28;20052;-64
2022/10/31 11:23:29;;;;;;;14.45;3.53;;;15.50;99.90;;;;;;5054804;28;20041;-64
2022/10/31 11:26:01;;;;;;;7.85;3.10;;;15.50;99.90;;;;;;5038486;28;20134;-63
2022/10/31 11:28:29;;;;;;;9.35;2.58;;;15.50;99.90;;;;;;5055719;28;20440;-64
2022/10/31 11:31:00;;;;;;;11.63;4.15;;;15.50;99.90;;;;;;5056288;28;20045;-63
2022/10/31 11:34:00;;;;;;;9.52;2.83;;;15.50;99.90;;;;;;5055318;28;20114;-63
2022/10/31 11:36:30;;;;;;;9.25;2.92;;;15.60;99.90;;;;;;5053571;28;20369;-63
2022/10/31 11:38:57;;;;;;;10.52;2.88;;;15.70;99.90;;;;;;5037833;28;20099;-64
2022/10/31 11:41:33;;;;;;;6.72;2.30;;;15.90;99.90;;;;;;5054787;28;20091;-64
2022/10/31 11:44:02;;;;;;;7.32;3.17;;;15.90;99.90;;;;;;5053962;28;20087;-64
2022/10/31 11:46:39;;;;;;;4.72;2.03;;;16.00;99.90;;;;;;5053941;28;20045;-64
2022/10/31 11:49:30;;;;;;;5.95;2.05;;;16.00;99.90;;;;;;5037243;28;20057;-64
2022/10/31 11:51:58;;;;;;;6.93;2.58;;;16.00;99.90;;;;;;5054364;28;20083;-64
2022/10/31 11:54:28;;;;;;;3.78;2.00;;;16.00;99.90;;;;;;5054125;28;20048;-64
2022/10/31 11:56:55;;;;;;;10.38;2.50;;;15.90;99.90;;;;;;5037489;28;20127;-64
2022/10/31 11:59:28;;;;;;;5.10;1.67;;;15.90;99.90;;;;;;5054128;28;20086;-64
2022/10/31 12:01:56;;;;;;;5.20;2.03;;;15.90;99.90;;;;;;5054127;28;20049;-65
2022/10/31 12:04:34;;;;;;;10.93;7.05;;;15.90;99.90;;;;;;5053891;28;20085;-64
2022/10/31 12:07:01;;;;;;;8.15;2.72;;;15.90;99.90;;;;;;5054036;28;20094;-62
2022/10/31 12:09:30;;;;;;;9.38;3.03;;;16.00;99.90;;;;;;5053723;28;20049;-64
2022/10/31 12:12:02;;;;;;;6.80;1.90;;;16.00;99.90;;;;;;5053998;28;20052;-63
2022/10/31 12:15:07;;;;;;;5.38;1.80;;;16.10;99.90;;;;;;5055237;28;20110;-65
2022/10/31 12:17:40;;;;;;;6.65;1.77;;;16.10;99.90;;;;;;5055030;28;20049;-64
2022/10/31 12:20:28;;;;;;;9.45;2.15;;;16.10;99.90;;;;;;5054828;28;20056;-66
2022/10/31 12:23:16;;;;;;;4.63;1.60;;;16.20;99.90;;;;;;5054002;28;20053;-67
2022/10/31 12:26:04;;;;;;;8.27;2.60;;;16.20;99.90;;;;;;5053813;28;20045;-64
2022/10/31 12:28:30;;;;;;;6.88;2.00;;;16.10;99.90;;;;;;5054375;28;20045;-66
2022/10/31 12:31:26;;;;;;;6.22;1.95;;;16.00;99.90;;;;;;5054808;28;20045;-65
2022/10/31 12:33:56;;;;;;;6.93;2.03;;;16.00;99.90;;;;;;5053737;28;20056;-62
2022/10/31 12:36:35;;;;;;;7.82;2.33;;;16.00;99.90;;;;;;5053706;28;20381;-62
2022/10/31 12:39:24;;;;;;;4.78;1.80;;;15.90;99.90;;;;;;5053194;28;20044;-66
2022/10/31 12:41:52;;;;;;;;;;;15.90;99.90;;;;;;5054818;28;20049;-62
2022/10/31 12:44:28;;;;;;;6.13;2.08;;;15.90;99.90;;;;;;5086744;28;19917;-63
2022/10/31 12:47:01;;;;;;;6.13;1.98;;;15.90;99.90;;;;;;5053084;28;20045;-67
2022/10/31 12:49:46;;;;;;;9.38;1.85;;;15.80;99.90;;;;;;5053935;28;20464;-66
2022/10/31 12:52:44;;;;;;;4.43;1.70;;;15.90;99.90;;;;;;5054744;28;20091;-65
2022/10/31 12:55:16;;;;;;;6.45;2.08;;;15.90;99.90;;;;;;5053804;28;20052;-63
2022/10/31 12:57:48;;;;;;;5.53;1.65;;;15.90;99.90;;;;;;5052849;28;20055;-65
2022/10/31 13:00:16;;;;;;;5.55;2.17;;;15.90;99.90;;;;;;5053745;28;20162;-64
2022/10/31 13:03:05;;;;;;;5.93;2.10;;;15.90;99.90;;;;;;5052946;28;20131;-65